Terminal Aerodrome Forecast
Issued by NWS

Home | Current Version | Previous Version | Graphics & Text | Print | Product List | Glossary On
Versions: 1 2 3 4 5 6 7 8 9 10 11 12 13 14 15 16 17 18 19 20 21
000
FTUS43 KIWX 211137
TAFSBN
TAF
KSBN 211137Z 2112/2212 17005KT 1SM -DZ BR OVC004
      TEMPO 2113/2116 1/4SM -DZ FG VV002
     FM212000 17006KT 2SM -DZ BR OVC007
     FM220200 16005KT 1SM -RA BR OVC004
     FM220600 15006KT 1/2SM RA FG OVC003=

USA.gov is the U.S. government's official web portal to all federal, state and local government web resources and services.